Date,TemperatureHighF,TemperatureAvgF,TemperatureLowF,DewpointHighF,DewpointAvgF,DewpointLowF,HumidityHigh,HumidityAvg,HumidityLow,PressureMaxIn,PressureMinIn,WindSpeedMaxMPH,WindSpeedAvgMPH,GustSpeedMaxMPH,PrecipitationSumIn
2013-4-1,48,43,38,41,39,37,99,88,71,0.00,40.00,6,4,12,0.77
2013-4-2,56,42,31,42,38,31,100,88,59,0.00,40.00,8,4,13,0.01
2013-4-3,60,43,30,44,38,30,100,84,48,0.00,40.00,7,4,11,0.01
2013-4-4,56,48,43,43,39,34,85,69,54,0.00,40.00,16,8,32,0.03
2013-4-5,52,43,38,38,36,33,96,78,51,0.00,40.00,13,9,32,0.07
2013-4-6,49,41,36,38,36,33,96,83,57,0.00,40.00,17,9,30,0.21
2013-4-7,42,38,30,37,33,25,96,83,58,0.00,40.00,19,11,36,0.25
2013-4-8,44,35,26,28,24,19,92,65,51,0.00,40.00,19,11,31,0.03
2013-4-9,59,41,25,36,28,22,91,65,27,0.00,40.00,15,6,24,0.03
2013-4-10,56,45,34,44,37,29,96,76,60,0.00,40.00,15,7,27,0.00
2013-4-11,57,42,25,33,26,16,95,60,21,0.00,40.00,10,5,19,0.00
2013-4-12,62,45,27,36,27,15,93,57,19,0.00,40.00,15,8,25,0.00
2013-4-13,44,40,30,37,24,19,77,54,38,0.00,40.00,16,11,33,0.00
2013-4-14,42,32,21,23,19,15,88,62,36,0.00,40.00,12,6,21,0.00
2013-4-15,37,31,26,29,24,19,93,76,48,0.00,40.00,12,6,23,0.01
2013-4-16,41,32,25,34,24,20,84,73,55,0.00,40.00,17,6,29,0.07
2013-4-17,51,36,24,24,21,12,91,58,22,0.00,40.00,11,7,20,0.01
2013-4-18,60,43,27,38,29,22,82,60,36,0.00,40.00,10,5,18,0.00
2013-4-19,54,45,38,39,36,30,91,70,46,0.00,40.00,19,10,36,0.00
2013-4-20,61,44,27,36,30,19,97,63,25,0.00,40.00,14,6,21,0.00
2013-4-21,61,46,30,38,33,28,96,65,32,0.00,40.00,16,8,29,0.00
2013-4-22,58,45,31,37,24,9,96,53,15,0.00,40.00,10,7,21,0.00
2013-4-23,65,46,25,18,14,4,67,33,9,0.00,40.00,11,7,26,0.00
2013-4-24,68,49,30,18,15,5,51,28,8,0.00,40.00,8,6,20,0.00
2013-4-25,72,51,29,40,25,16,63,39,14,0.00,40.00,14,7,25,0.00
2013-4-26,75,56,34,40,32,25,89,46,17,0.00,40.00,9,6,19,0.00
2013-4-27,73,56,36,37,30,23,80,43,16,0.00,40.00,15,7,22,0.00
2013-4-28,65,54,42,33,29,21,59,38,27,0.00,40.00,14,6,21,0.00
2013-4-29,58,48,39,42,35,27,81,61,33,0.00,40.00,14,8,23,0.00
2013-4-30,57,41,27,29,17,-3,86,47,9,0.00,40.00,15,6,27,0.00